Airfield :
LOGIN :

Register | Disclaimer

   EN    FR    IT 

 










Legend :    VFR   Marginal VFR   IFR   Intensive IFR   Very Intensive IFR
Visi :
Ceiling :
>= 8 km
>= 3000ft
5 to 8 km
1000 to 3000 ft
1500m to 5 km
500 to 1000 ft
800 to 1500m
200 to 500 ft
< 800m
< 200 ft
Symbols :   Thunderstorms  Fog  Heavy snow  Heavy precipitations  Wind > 20 kt
SIGMETs :     Misc.  Thunderstorms  Icing  Turbulence  Mountain Waves  Volcanic Ashes






- Airport Elevation : -15 ft
- IATA code : RTM


EHRD - Rotterdam Zestienhoven

CURRENT METAR :
  • 080155Z AUTO 21023KT 170V250 9999 OVC024 10/06 Q1006 NOSIG

EXPIRED METARs :
  • 080125Z AUTO 21019G30KT 180V240 9999 FEW021 OVC025 10/06 Q1006 NOSIG
  • 080055Z AUTO 21017G28KT 180V240 9999 SCT019 OVC023 10/06 Q1007 NOSIG
  • 080025Z AUTO 20016KT 170V250 9999 FEW021 OVC025 10/06 Q1007 NOSIG
  • 072355Z AUTO 21018KT 190V250 9999 SCT016 BKN020 OVC023 10/07 Q1008 NOSIG
  • 072325Z AUTO 21015KT 160V250 9999 SCT017 BKN020 OVC024 10/07 Q1008 NOSIG

TAF TAF EHRD
Valid from the 08 at 00:00 until the 09 at 06:00 UTC


072318Z 0800/0906 21017G27KT 9999 BKN016
BECMG 0803/0806 22023G35KT 7000 RA BKN012
PROB30
TEMPO 0809/0811 4000 SHRA BKN008 SCT015TCU
BECMG 0810/0812 26022G34KT 9999 NSW SCT025
BECMG 0813/0816 23020G30KT
TEMPO 0815/0906 7000 -SHRA FEW025CB
PROB30
TEMPO 0816/0819 24025G38KT 4000 SHRA TSRA SCT022CB BKN030
BECMG 0900/0903 19020G30KT
PROB30
TEMPO 0903/0906 22022G33KT 4000 SHRA TSRA SCT018 SCT022CB BKN025
BECMG 0904/0906 28018G28KT



MET'MAP, your aeronautical weather chart ! - Copyright ORBIFLY December 2007 - Disclaimer

ORBIFLY MET'MAP TEAM :

Programming & Development : Alexandra Zaïnal
Concept & original design : Baudouin d'Aumeries
Assistance for programming : Marc-Olivier Méhu
Technical & hardware support : Manuel Goepfert

Contact : metmap@orbifly.com




SOURCES & CREDITS :

   NOAA